RJAAZBSJ

Guest
Details From RJAA - Narita Intl
To ZBSJ - Zhengding
Flight Number -
Tags Generated
Created
Modified
Stats Distance 1,237 nm / 2,291 km
Max Altitude 0 ft / 0 m
Waypoints 3
Social Downloads 0
Likes 0
Share VATSIM

Download

Looking for another format? Having issues loading an existing format? Contact us
Advertisement - Login to hide

Notes

Generated

Route

RJAA SJW ZBSJ

ID Type Via Altitude Latitude Longitude Leg Dist Tot Dist Heading (true) Name
O RJAA APT - 0 ft / 0 m 35.80271˚ 140.37991˚ - 0 nm - -
SJW VOR - 0 ft / 0 m 38.28000˚ 114.70167˚ 1235 nm 1235 nm 285° / 269° ZHENGDING VOR-DME
O ZBSJ APT - 0 ft / 0 m 38.29359˚ 114.68681˚ 1 nm 1236 nm 319° / 319° -

Altitude Profile

Advertisement - Login to hide

Weather


0- 5 10 15 20 25 30 35+ Temperature / ° C

Clouds and Precipitation
Forecast for 2018-05-26 18:00 UTC. Updated 3 hours ago

Ground ~20,000 ft ~40,000 ft Winds

RJAA

Details ICAO RJAA (NRT)
Name NARITA INTL
Region Japan
Timezone Asia/Tokyo (UTC+9.0)
Stats Elevation 141 ft / 43 m (AMSL)
Location 35.776552° 140.382770°
Runways 2
Magnetic Variation 7.431° W

METAR

RJAA 262000Z 03006KT 9999 FEW006 SCT008 BKN025 16/15 Q1010 TEMPO FEW005 BKN008

Decode

TAF

TAF AMD RJAA 262004Z 2620/2800 04005KT 9999 FEW010 BKN020 TEMPO 2620/2623 FEW005 BKN008 BECMG 2701/2703 12010KT BECMG 2712/2715 05005KT TEMPO 2712/2721 FEW005 BKN008 BECMG 2721/2800 20005KT

Decode

Departure Runways

ID Width Length Bearing (true) Bearing (mag) Surface Threshold Offset Overrun Length
16L 196 ft / 60 m 7,162 ft / 2,183 m 149.61° 157.04° Asphalt 190 ft / 58 m 0 ft / 0 m
16R 196 ft / 60 m 13,142 ft / 4,006 m 149.61° 157.04° Asphalt 0 ft / 0 m 410 ft / 125 m
34L 196 ft / 60 m 13,142 ft / 4,006 m 329.62° 337.05° Asphalt 0 ft / 0 m 415 ft / 126 m
34R 196 ft / 60 m 7,162 ft / 2,183 m 329.62° 337.05° Asphalt 190 ft / 58 m 0 ft / 0 m

ZBSJ

Details ICAO ZBSJ (SJW)
Name ZHENGDING
Region China
Timezone Asia/Shanghai (UTC+8.0)
Stats Elevation 233 ft / 71 m (AMSL)
Location 38.280687° 114.697299°
Runways 1
Magnetic Variation 6.022° W

METAR

ZBSJ 262000Z 31001MPS CAVOK 18/08 Q1010 NOSIG

Decode

TAF

Not found

Destination Runways

ID Width Length Bearing (true) Bearing (mag) Surface Threshold Offset Overrun Length
15 148 ft / 45 m 11,172 ft / 3,405 m 147.46° 153.48° Concrete 0 ft / 0 m 190 ft / 58 m
33 148 ft / 45 m 11,172 ft / 3,405 m 327.47° 333.49° Concrete 0 ft / 0 m 200 ft / 61 m

Approach Navaids

Runway Type Ident Frequency Range Bearing (true) Bearing (mag) Slope Elevation
15 Localiser IOO 109.90 MHz 18 nm / 33 km 148.09° 154.11° - 233 ft / 71 m (AMSL)
15 Glidescope IOO 109.90 MHz 10 nm / 19 km 147.47° 153.49° 3.00° 233 ft / 71 m (AMSL)
33 Localiser IFF 110.30 MHz 18 nm / 33 km 326.77° 332.79° - 233 ft / 71 m (AMSL)
33 Glidescope IFF 110.30 MHz 10 nm / 19 km 327.47° 333.49° 3.00° 233 ft / 71 m (AMSL)
33 DME IFF 110.30 MHz 18 nm / 33 km - - - 233 ft / 71 m (AMSL)